»·PEaware :: N258CB KMHV-KSBA

N258CB :: KMHV-KSBA

FLIGHT INFORMATION

Flight Status: Arrived
Operator: Privately registered:
United States
More flights under this callsign
Pilot: Eric W. (14379)
Aircraft: BEECH AIRCRAFT DEBONAIR BONANZA
(BE33)
More flights by this aircraft type
Origin: KMHV Mojave
United States
Destination: KSBA Santa Barbara Mun
United States
More flights between these airports :: More routes between these airports
Route: +DIRECT
File this flight plan on PilotEdge
Remarks:
Altitude:
(Current/Filed)
8,500ft
Speed:
(Current/Filed)
170kts
Departed: 17-Jul-20 03:57 PM
Arrived: 17-Jul-20 04:35 PM
Distance/Time
Traveled:
91nm/0:38
Distance/Time
To Go:
Arrived

Flight Plot

Page will automatically refresh every two minutes.


Map Options




Map Legend


Flown Route
Filed Route
Departure Airport
Arrival Airport
Navaid (VOR, NDB)
Fix

Horizontal Profiles

Position Reports

Time Latitude Longitude Heading Altitude Ground
Speed
17-Jul-20 15:46 35.057278 -118.158513 184 2766ft 0kts
17-Jul-20 15:47 35.057278 -118.158513 184 2766ft 0kts
17-Jul-20 15:48 35.057401 -118.157840 63 2765ft 12kts
17-Jul-20 15:49 35.057587 -118.151740 88 2753ft 32kts
17-Jul-20 15:50 35.055517 -118.146301 135 2736ft 24kts
17-Jul-20 15:51 35.050171 -118.139827 136 2708ft 30kts
17-Jul-20 15:52 35.044742 -118.133260 136 2685ft 25kts
17-Jul-20 15:53 35.043971 -118.132138 0 2683ft 0kts
17-Jul-20 15:54 35.044270 -118.131807 51 2683ft 0kts
17-Jul-20 15:55 35.045083 -118.131340 327 2684ft 12kts
17-Jul-20 15:56 35.055724 -118.143030 311 3092ft 85kts
17-Jul-20 15:57 35.059733 -118.160767 235 3803ft 79kts
17-Jul-20 15:58 35.046509 -118.177771 221 4482ft 88kts
17-Jul-20 15:59 35.032691 -118.196530 229 5090ft 103kts
17-Jul-20 16:00 35.020394 -118.222431 244 5705ft 114kts
17-Jul-20 16:01 35.010687 -118.251830 244 6401ft 113kts
17-Jul-20 16:02 35.000615 -118.282256 243 7104ft 113kts
17-Jul-20 16:03 34.990375 -118.312966 242 7791ft 113kts
17-Jul-20 16:04 34.978751 -118.347631 243 8477ft 118kts
17-Jul-20 16:05 34.962670 -118.395197 244 8496ft 157kts
17-Jul-20 16:06 34.946636 -118.443015 244 8494ft 167kts
17-Jul-20 16:07 34.930057 -118.492052 244 8490ft 169kts
17-Jul-20 16:08 34.912713 -118.543169 244 8493ft 170kts
17-Jul-20 16:09 34.895318 -118.594416 244 8486ft 170kts
17-Jul-20 16:10 34.877148 -118.647129 245 8492ft 170kts
17-Jul-20 16:11 34.859850 -118.697847 243 9101ft 149kts
17-Jul-20 16:12 34.845292 -118.740361 242 9687ft 140kts
17-Jul-20 16:13 34.830205 -118.784402 242 10336ft 135kts
17-Jul-20 16:14 34.815707 -118.826358 242 10509ft 154kts
17-Jul-20 16:15 34.799180 -118.874406 241 10507ft 164kts
17-Jul-20 16:16 34.780027 -118.924554 241 10435ft 168kts
17-Jul-20 16:17 34.761013 -118.974399 241 10433ft 168kts
17-Jul-20 16:18 34.741503 -119.025354 241 10434ft 166kts
17-Jul-20 16:19 34.721390 -119.078171 241 9905ft 167kts
17-Jul-20 16:20 34.700136 -119.133584 242 9062ft 171kts
17-Jul-20 16:21 34.678450 -119.190164 242 8438ft 171kts
17-Jul-20 16:22 34.656946 -119.246304 242 8442ft 171kts
17-Jul-20 16:23 34.634949 -119.303426 243 8439ft 171kts
17-Jul-20 16:24 34.613528 -119.359161 242 8450ft 171kts
17-Jul-20 16:25 34.588932 -119.422875 243 7768ft 188kts
17-Jul-20 16:26 34.563663 -119.488235 242 6763ft 189kts
17-Jul-20 16:27 34.539034 -119.551804 243 5749ft 183kts
17-Jul-20 16:28 34.515022 -119.613680 243 4748ft 180kts
17-Jul-20 16:29 34.491996 -119.670876 234 4482ft 158kts
17-Jul-20 16:30 34.460584 -119.721101 232 3513ft 159kts
17-Jul-20 16:31 34.437682 -119.767376 244 1344ft 131kts
17-Jul-20 16:32 34.428993 -119.805397 262 717ft 82kts
17-Jul-20 16:33 34.427903 -119.834680 262 39ft 58kts
17-Jul-20 16:34 34.426945 -119.841397 165 13ft 0kts
17-Jul-20 16:35 34.424186 -119.840568 166 12ft 17kts
17-Jul-20 16:36 34.422962 -119.836859 346 14ft 6kts
17-Jul-20 16:37 34.423147 -119.836379 174 13ft 0kts
17-Jul-20 16:38 34.423147 -119.836379 174 13ft 0kts
17-Jul-20 16:39 34.423147 -119.836379 174 13ft 0kts
17-Jul-20 16:40 34.423147 -119.836379 174 13ft 0kts
17-Jul-20 16:41 34.423147 -119.836379 174 13ft 0kts
17-Jul-20 16:42 34.423147 -119.836379 174 13ft 0kts
17-Jul-20 16:43 34.423147 -119.836379 174 13ft 0kts
17-Jul-20 16:44 34.423147 -119.836379 174 13ft 0kts
17-Jul-20 16:45 34.423147 -119.836379 174 13ft 0kts
17-Jul-20 16:46 34.423147 -119.836379 174 13ft 0kts
17-Jul-20 16:47 34.423147 -119.836379 174 13ft 0kts
17-Jul-20 16:48 34.423147 -119.836379 174 13ft 0kts

Navigation Log

Ident Type
Flight plan parsing failed, navigation log unavailable